Sovetskiy, Russia
Current Conditions -  °F | °C
As of 9:30 AM on Sunday 21 Dec 2014 (Local Time) from USHH Reporting Station
Haze Haze  
Wind Chill:   Ceiling: 400
Heat Index: 21°   Visibility: 2.6mi
Dew Point: 19°   Wind: 13mph
Humidity: 93%   Direction: 160°SSE
Pressure: 29.65"   Gusts: NA
Location:  61.36°N, 63.58°E
Report Text: USHH 210430Z 16006MPS 4200 BR BKN004 OVC080 M06/M07 Q1004 TEMPO1000 SN OVC002 RMK QBB140 QFE749 24////37
Loading
Personal Weather Stations






























Interactive Weather Map New forecast layout! Learn more

10-Day Weather Forecast

Advertisements
Track Severe Weather on mobile